Time;durP1;ratioP1;P1;durP2;ratioP2;P2;SDS_P1;SDS_P2;PMS_P1;PMS_P2;Temp;Humidity;BMP_temperature;BMP_pressure;BME280_temperature;BME280_humidity;BME280_pressure;Samples;Min_cycle;Max_cycle;Signal;HPM_P1;HPM_P2
2023/01/31 00:01:04;;;;;;;6.35;1.48;;;;;;;1.45;100.00;98885.94;4187347;28;20121;-76
2023/01/31 00:03:05;;;;;;;9.55;2.45;;;;;;;1.45;100.00;98867.66;4186450;28;20073;-75
2023/01/31 00:05:05;;;;;;;9.75;1.85;;;;;;;1.49;100.00;98870.56;4186574;28;20468;-76
2023/01/31 00:07:05;;;;;;;5.82;1.92;;;;;;;1.54;100.00;98874.00;4189401;28;20049;-75
2023/01/31 00:09:08;;;;;;;7.85;1.92;;;;;;;1.59;100.00;98884.00;4186517;28;20033;-75
2023/01/31 00:11:09;;;;;;;7.72;1.65;;;;;;;1.58;100.00;98888.63;4186896;28;20051;-76
2023/01/31 00:13:09;;;;;;;6.03;1.73;;;;;;;1.62;100.00;98894.28;4186068;28;20063;-75
2023/01/31 00:15:12;;;;;;;5.72;1.63;;;;;;;1.51;100.00;98895.63;4187840;28;20036;-75
2023/01/31 00:17:12;;;;;;;6.47;1.40;;;;;;;1.53;100.00;98904.31;4186003;28;20044;-77
2023/01/31 00:19:12;;;;;;;15.13;2.40;;;;;;;1.40;100.00;98909.47;4186671;28;20070;-76
2023/01/31 00:21:19;;;;;;;3.80;1.35;;;;;;;1.33;100.00;98908.31;4186497;28;20110;-76
2023/01/31 00:23:19;;;;;;;8.70;1.95;;;;;;;1.29;100.00;98910.03;4185280;28;20064;-76
2023/01/31 00:25:20;;;;;;;4.85;1.73;;;;;;;1.24;100.00;98905.50;4186274;28;20043;-76
2023/01/31 00:27:20;;;;;;;8.32;1.85;;;;;;;1.13;100.00;98913.06;4186546;28;20100;-76
2023/01/31 00:29:23;;;;;;;8.05;2.17;;;;;;;1.09;100.00;98901.19;4186827;28;20036;-76
2023/01/31 00:31:27;;;;;;;7.00;1.67;;;;;;;1.04;100.00;98898.56;4188534;28;20849;-76
2023/01/31 00:33:27;;;;;;;3.78;1.45;;;;;;;1.00;100.00;98905.75;4190989;28;20044;-76
2023/01/31 00:35:27;;;;;;;9.32;1.80;;;;;;;1.08;100.00;98906.94;4186501;28;20055;-76
2023/01/31 00:37:28;;;;;;;12.85;2.35;;;;;;;0.98;100.00;98899.78;4187062;28;20053;-77
2023/01/31 00:39:28;;;;;;;11.80;2.10;;;;;;;0.97;100.00;98902.81;4188549;28;20076;-76
2023/01/31 00:41:30;;;;;;;8.27;2.25;;;;;;;1.01;100.00;98904.63;4187981;28;20524;-76
2023/01/31 00:43:31;;;;;;;10.77;1.50;;;;;;;1.02;100.00;98900.78;4185746;28;20041;-75
2023/01/31 00:45:32;;;;;;;6.40;1.98;;;;;;;1.03;100.00;98907.03;4186947;28;20045;-76
2023/01/31 00:47:32;;;;;;;12.82;1.92;;;;;;;1.07;100.00;98906.13;4186647;28;20447;-76
2023/01/31 00:49:32;;;;;;;8.68;1.90;;;;;;;1.13;100.00;98902.19;4186554;28;20480;-76
2023/01/31 00:51:33;;;;;;;7.15;1.73;;;;;;;1.16;100.00;98902.66;4185887;28;20048;-76
2023/01/31 00:53:33;;;;;;;6.95;2.35;;;;;;;1.16;100.00;98908.13;4186111;28;20082;-76
2023/01/31 00:55:34;;;;;;;5.85;1.70;;;;;;;1.17;100.00;98907.84;4186331;28;20083;-75
2023/01/31 00:57:34;;;;;;;6.20;1.75;;;;;;;1.17;100.00;98910.56;4186719;28;20040;-76
2023/01/31 00:59:35;;;;;;;7.60;1.88;;;;;;;1.13;100.00;98895.91;4187266;28;20076;-76
2023/01/31 01:01:35;;;;;;;7.60;1.65;;;;;;;1.19;100.00;98910.25;4186162;28;20130;-75
2023/01/31 01:03:37;;;;;;;10.45;1.88;;;;;;;1.17;100.00;98907.84;4185737;28;20137;-76
2023/01/31 01:05:37;;;;;;;8.45;1.95;;;;;;;1.26;100.00;98900.56;4186602;28;20041;-75
2023/01/31 01:07:37;;;;;;;7.30;1.85;;;;;;;1.25;100.00;98904.38;4188784;28;20398;-76
2023/01/31 01:09:38;;;;;;;12.35;2.08;;;;;;;1.35;100.00;98909.59;4185612;28;20047;-75
2023/01/31 01:11:38;;;;;;;6.00;1.73;;;;;;;1.30;100.00;98914.34;4188771;28;20855;-76
2023/01/31 01:13:39;;;;;;;8.18;1.70;;;;;;;1.24;100.00;98908.22;4185572;28;20048;-76
2023/01/31 01:15:39;;;;;;;11.07;3.33;;;;;;;1.18;100.00;98914.91;4186357;28;20079;-76
2023/01/31 01:17:40;;;;;;;8.07;1.67;;;;;;;1.23;100.00;98924.88;4185911;28;20096;-76
2023/01/31 01:19:40;;;;;;;5.65;2.22;;;;;;;1.20;100.00;98917.31;4186740;28;20052;-76
2023/01/31 01:21:43;;;;;;;5.50;1.58;;;;;;;1.27;100.00;98915.78;4185589;28;20044;-76
2023/01/31 01:23:46;;;;;;;7.63;2.17;;;;;;;1.29;100.00;98929.91;4187939;28;20167;-76
2023/01/31 01:25:46;;;;;;;10.52;2.00;;;;;;;1.32;100.00;98934.75;4188084;28;20132;-75
2023/01/31 01:27:46;;;;;;;7.53;1.95;;;;;;;1.31;100.00;98937.78;4191624;28;20123;-76
2023/01/31 01:29:47;;;;;;;6.32;1.80;;;;;;;1.30;100.00;98944.34;4185781;28;20550;-75
2023/01/31 01:31:47;;;;;;;10.13;2.05;;;;;;;1.31;100.00;98929.59;4184606;28;20047;-75
2023/01/31 01:33:48;;;;;;;10.43;1.92;;;;;;;1.31;100.00;98921.41;4185338;28;20071;-76
2023/01/31 01:35:49;;;;;;;6.60;1.92;;;;;;;1.31;100.00;98929.59;4185516;28;20361;-75
2023/01/31 01:37:49;;;;;;;13.75;2.08;;;;;;;1.31;100.00;98929.59;4185213;28;20041;-75
2023/01/31 01:39:51;;;;;;;7.68;1.73;;;;;;;1.29;100.00;98920.94;4186212;28;20212;-75
2023/01/31 01:41:51;;;;;;;4.20;1.88;;;;;;;1.35;100.00;98922.44;4194582;28;20119;-76
2023/01/31 01:43:57;;;;;;;5.05;1.92;;;;;;;1.38;100.00;98903.53;4189974;28;20109;-75
2023/01/31 01:45:57;;;;;;;9.02;1.65;;;;;;;1.42;100.00;98908.38;4185633;28;20048;-76
2023/01/31 01:48:07;;;;;;;5.80;1.55;;;;;;;1.43;100.00;98910.00;4185202;28;20089;-76
2023/01/31 01:50:29;;;;;;;6.93;1.42;;;;;;;1.45;100.00;98924.94;4185255;28;20361;-76
2023/01/31 01:52:35;;;;;;;12.13;1.95;;;;;;;1.45;100.00;98924.13;4185434;28;20067;-76
2023/01/31 01:54:44;;;;;;;9.88;1.95;;;;;;;1.38;100.00;98928.06;4187460;28;20049;-76
2023/01/31 01:56:48;;;;;;;5.45;1.45;;;;;;;1.36;100.00;98932.22;4185966;28;20048;-76
2023/01/31 01:58:54;;;;;;;7.45;2.03;;;;;;;1.35;100.00;98947.78;4191286;28;20575;-76
2023/01/31 02:00:55;;;;;;;3.00;1.52;;;;;;;1.29;100.00;98945.47;4185906;28;20131;-76
2023/01/31 02:02:58;;;;;;;6.63;1.63;;;;;;;1.28;100.00;98962.94;4189088;28;20504;-76
2023/01/31 02:04:58;;;;;;;4.68;1.25;;;;;;;1.25;100.00;98960.84;4185428;28;20056;-75
2023/01/31 02:07:01;;;;;;;4.40;1.55;;;;;;;1.28;100.00;98968.38;4185839;28;20058;-76
2023/01/31 02:09:05;;;;;;;5.32;1.35;;;;;;;1.21;100.00;98962.53;4185408;28;20046;-76
2023/01/31 02:11:21;;;;;;;3.75;1.50;;;;;;;1.07;100.00;98960.63;4186918;28;20293;-76
2023/01/31 02:13:22;;;;;;;4.93;1.75;;;;;;;1.03;100.00;98956.91;4185518;28;20164;-76
2023/01/31 02:15:23;;;;;;;9.13;1.40;;;;;;;0.97;100.00;98962.75;4186671;28;20056;-76
2023/01/31 02:17:25;;;;;;;11.25;1.75;;;;;;;0.91;100.00;98958.50;4189788;28;20048;-76
2023/01/31 02:19:40;;;;;;;2.72;1.65;;;;;;;0.87;100.00;98965.69;4185292;28;20498;-76
2023/01/31 02:22:02;;;;;;;3.35;1.27;;;;;;;0.76;100.00;98955.00;4186486;28;20052;-76
2023/01/31 02:24:06;;;;;;;8.00;1.60;;;;;;;0.71;100.00;98967.88;4184342;28;20101;-76
2023/01/31 02:26:55;;;;;;;10.90;2.00;;;;;;;0.67;100.00;98967.69;4187204;28;20059;-76
2023/01/31 02:29:14;;;;;;;4.50;1.30;;;;;;;0.72;100.00;98967.56;4174474;28;20068;-75
2023/01/31 02:31:44;;;;;;;7.65;2.10;;;;;;;0.77;100.00;98966.69;4188171;28;20373;-76
2023/01/31 02:33:47;;;;;;;12.85;3.20;;;;;;;0.83;100.00;98985.38;4154726;28;20416;-76
2023/01/31 02:36:28;;;;;;;11.18;3.20;;;;;;;0.83;100.00;98981.84;4188006;28;20071;-76
2023/01/31 02:38:48;;;;;;;6.47;2.28;;;;;;;0.84;100.00;98989.69;4188492;28;20072;-76
2023/01/31 02:41:23;;;;;;;14.82;3.45;;;;;;;0.77;100.00;98988.47;4190190;28;20048;-76
2023/01/31 02:46:17;;;;;;;8.13;2.35;;;;;;;0.85;100.00;99004.13;4185517;28;20044;-76
2023/01/31 02:48:29;;;;;;;10.63;2.50;;;;;;;0.86;100.00;99007.66;4188085;28;20461;-76
2023/01/31 02:50:37;;;;;;;4.57;1.98;;;;;;;0.90;100.00;99006.75;4191589;28;20188;-75
2023/01/31 02:53:02;;;;;;;12.52;1.83;;;;;;;0.99;100.00;99015.00;4187675;28;20068;-76
2023/01/31 02:57:34;;;;;;;7.88;1.88;;;;;;;1.09;100.00;99018.38;4195474;28;20047;-76
2023/01/31 02:59:35;;;;;;;7.93;1.27;;;;;;;1.16;100.00;99007.06;4189419;28;20970;-75
2023/01/31 03:01:40;;;;;;;7.35;2.50;;;;;;;1.18;100.00;99015.75;4187748;28;20484;-76
2023/01/31 03:03:41;;;;;;;8.20;1.80;;;;;;;1.20;100.00;99004.53;4187146;28;20138;-76
2023/01/31 03:05:41;;;;;;;5.47;1.75;;;;;;;1.22;100.00;99005.03;4188373;28;20037;-76
2023/01/31 03:07:46;;;;;;;10.98;2.00;;;;;;;1.28;100.00;98999.19;4187868;28;20056;-75
2023/01/31 03:10:19;;;;;;;7.78;2.03;;;;;;;1.31;100.00;99005.94;4193402;28;20360;-76
2023/01/31 03:12:46;;;;;;;12.40;1.67;;;;;;;1.32;100.00;99005.63;4187634;28;20051;-76
2023/01/31 03:14:56;;;;;;;4.90;1.52;;;;;;;1.37;100.00;99010.97;4187623;28;20052;-76
2023/01/31 03:19:42;;;;;;;8.13;1.95;;;;;;;1.26;100.00;99019.69;4187484;28;20129;-76
2023/01/31 03:21:48;;;;;;;7.68;1.70;;;;;;;1.25;100.00;99023.53;4185433;28;20164;-76
2023/01/31 03:23:52;;;;;;;6.28;1.88;;;;;;;1.23;100.00;99010.19;4186914;28;20474;-75
2023/01/31 03:25:52;;;;;;;7.88;2.30;;;;;;;1.21;100.00;99017.06;4188093;28;20509;-76
2023/01/31 03:27:57;;;;;;;9.10;2.15;;;;;;;1.18;100.00;99013.03;4187790;28;20040;-76
2023/01/31 03:30:04;;;;;;;9.07;1.77;;;;;;;1.18;100.00;99012.22;4187319;28;20135;-76
2023/01/31 03:32:12;;;;;;;7.38;2.35;;;;;;;1.21;100.00;99020.59;4187185;28;20044;-76
2023/01/31 03:34:14;;;;;;;8.93;2.85;;;;;;;1.21;100.00;99017.06;4186893;28;20033;-75
2023/01/31 03:36:24;;;;;;;6.38;1.58;;;;;;;1.20;100.00;99015.44;4190220;28;20040;-76
2023/01/31 03:38:30;;;;;;;11.40;1.80;;;;;;;1.20;100.00;99012.72;4187662;28;20044;-76
2023/01/31 03:40:36;;;;;;;5.45;1.77;;;;;;;1.16;100.00;99023.44;4187181;28;20098;-75
2023/01/31 03:42:56;;;;;;;8.60;2.88;;;;;;;1.12;100.00;99025.13;4186639;28;20397;-75
2023/01/31 03:45:13;;;;;;;5.03;1.77;;;;;;;1.19;100.00;99025.53;4187415;28;20357;-75
2023/01/31 03:47:32;;;;;;;5.43;2.30;;;;;;;1.24;100.00;99030.06;4187347;28;20056;-75
2023/01/31 03:49:33;;;;;;;4.75;1.80;;;;;;;1.20;100.00;99029.06;4187414;28;20044;-76
2023/01/31 03:51:37;;;;;;;11.77;2.28;;;;;;;1.19;100.00;99006.47;4187885;28;20084;-76
2023/01/31 03:53:46;;;;;;;9.52;2.40;;;;;;;1.10;100.00;98998.19;4185831;28;20072;-76
2023/01/31 03:55:58;;;;;;;4.47;2.28;;;;;;;1.03;100.00;99016.03;4187798;28;20350;-75
2023/01/31 03:58:02;;;;;;;13.50;2.73;;;;;;;1.02;100.00;99006.25;4187530;28;20443;-76
2023/01/31 04:00:06;;;;;;;11.18;1.90;;;;;;;1.00;100.00;99001.13;4186996;28;20071;-76
2023/01/31 04:02:10;;;;;;;6.70;1.83;;;;;;;0.99;100.00;99006.84;4189433;28;20107;-76
2023/01/31 04:04:15;;;;;;;7.03;2.03;;;;;;;0.99;100.00;99013.09;4190619;28;20076;-76
2023/01/31 04:06:16;;;;;;;7.53;2.60;;;;;;;0.99;100.00;99013.09;4186763;28;20090;-76
2023/01/31 04:08:16;;;;;;;8.10;2.15;;;;;;;1.01;100.00;99019.06;4189261;28;20028;-76
2023/01/31 04:10:18;;;;;;;4.78;2.67;;;;;;;1.02;100.00;99014.44;4186906;28;20039;-75
2023/01/31 04:12:18;;;;;;;6.30;2.40;;;;;;;1.07;100.00;99015.13;4186391;28;20540;-75
2023/01/31 04:14:19;;;;;;;6.45;2.60;;;;;;;1.09;100.00;99006.66;4187202;28;20059;-75
2023/01/31 04:16:19;;;;;;;6.55;1.63;;;;;;;1.18;100.00;99013.03;4185881;28;20051;-75
2023/01/31 04:18:19;;;;;;;5.43;1.63;;;;;;;1.17;100.00;99007.88;4184070;28;20028;-75
2023/01/31 04:20:20;;;;;;;5.70;2.13;;;;;;;1.14;100.00;99006.53;4182859;28;20308;-76
2023/01/31 04:22:20;;;;;;;8.27;1.90;;;;;;;1.21;100.00;99019.78;4179442;28;20400;-75
2023/01/31 04:24:22;;;;;;;8.93;2.30;;;;;;;1.18;100.00;99015.75;4182060;28;20072;-75
2023/01/31 04:26:22;;;;;;;5.25;1.70;;;;;;;1.11;100.00;99010.69;4191463;28;20127;-76
2023/01/31 04:28:22;;;;;;;6.82;1.77;;;;;;;1.06;100.00;99007.25;4186043;28;20131;-75
2023/01/31 04:30:23;;;;;;;10.00;2.10;;;;;;;1.04;100.00;99015.72;4184648;28;20080;-75
2023/01/31 04:32:23;;;;;;;7.60;2.03;;;;;;;1.00;100.00;99009.28;4189670;28;20078;-76
2023/01/31 04:34:23;;;;;;;6.85;1.77;;;;;;;0.99;100.00;99013.09;4189884;28;20114;-76
2023/01/31 04:36:24;;;;;;;10.23;2.45;;;;;;;0.95;100.00;99012.09;4189558;28;20052;-76
2023/01/31 04:38:24;;;;;;;15.05;2.35;;;;;;;0.94;100.00;99015.94;4189726;28;20081;-76
2023/01/31 04:40:25;;;;;;;11.60;2.17;;;;;;;0.99;100.00;99015.81;4185689;28;20354;-75
2023/01/31 04:42:25;;;;;;;5.75;1.98;;;;;;;0.98;100.00;99016.13;4186951;28;20134;-75
2023/01/31 04:44:26;;;;;;;7.60;2.13;;;;;;;0.98;100.00;99021.56;4184137;28;20040;-75
2023/01/31 04:46:26;;;;;;;6.82;2.08;;;;;;;0.94;100.00;99015.94;4185929;28;20823;-75
2023/01/31 04:48:26;;;;;;;7.25;2.20;;;;;;;0.89;100.00;99010.56;4188558;28;20046;-76
2023/01/31 04:50:27;;;;;;;12.75;2.20;;;;;;;0.91;100.00;99008.38;4190334;28;20083;-76
2023/01/31 04:52:27;;;;;;;3.17;1.80;;;;;;;0.95;100.00;99003.13;4187331;28;20491;-76
2023/01/31 04:54:27;;;;;;;8.15;2.15;;;;;;;0.94;100.00;99002.31;4188694;28;20055;-75
2023/01/31 04:56:28;;;;;;;9.82;2.47;;;;;;;0.93;100.00;98999.91;4191671;28;20072;-76
2023/01/31 04:58:28;;;;;;;9.23;2.58;;;;;;;0.94;100.00;98996.88;4188186;28;20049;-75
2023/01/31 05:00:29;;;;;;;6.03;2.53;;;;;;;0.88;100.00;99003.50;4190875;28;20068;-76
2023/01/31 05:02:30;;;;;;;6.45;2.20;;;;;;;0.88;100.00;99006.25;4185555;28;20075;-75
2023/01/31 05:04:30;;;;;;;10.60;2.45;;;;;;;0.84;100.00;99003.31;4187848;28;20500;-75
2023/01/31 05:06:30;;;;;;;7.57;2.60;;;;;;;0.91;100.00;99013.81;4191754;28;20055;-75
2023/01/31 05:08:31;;;;;;;11.45;3.50;;;;;;;0.89;100.00;99009.78;4186189;28;20484;-75
2023/01/31 05:10:33;;;;;;;7.50;3.15;;;;;;;0.86;100.00;98999.47;4188016;28;20045;-76
2023/01/31 05:12:33;;;;;;;4.85;2.75;;;;;;;0.74;100.00;98997.22;4189591;28;20068;-75
2023/01/31 05:14:33;;;;;;;10.60;2.50;;;;;;;0.72;100.00;99007.63;4189391;28;20404;-75
2023/01/31 05:16:34;;;;;;;6.22;2.60;;;;;;;0.71;100.00;98992.41;4190475;28;20079;-75
2023/01/31 05:18:34;;;;;;;10.20;2.67;;;;;;;0.70;100.00;99001.69;4186541;28;20811;-75
2023/01/31 05:20:39;;;;;;;8.30;3.45;;;;;;;0.64;100.00;99003.69;4182267;28;20045;-75
2023/01/31 05:22:39;;;;;;;7.68;2.58;;;;;;;0.62;100.00;99005.09;4185180;28;20302;-75
2023/01/31 05:24:40;;;;;;;9.02;2.88;;;;;;;0.57;100.00;99012.22;4185069;28;20048;-76
2023/01/31 05:26:40;;;;;;;11.05;2.55;;;;;;;0.57;100.00;99005.97;4185386;28;20125;-76
2023/01/31 05:28:41;;;;;;;5.78;2.33;;;;;;;0.60;100.00;99004.59;4183082;28;20187;-75
2023/01/31 05:30:41;;;;;;;7.00;2.17;;;;;;;0.65;100.00;99009.94;4184519;28;20543;-75
2023/01/31 05:32:44;;;;;;;8.98;2.63;;;;;;;0.72;100.00;99000.25;4185248;28;20148;-75
2023/01/31 05:34:44;;;;;;;;;;;;;;;0.75;100.00;99005.13;4186069;28;20036;-75
2023/01/31 05:36:45;;;;;;;5.47;1.90;;;;;;;0.80;100.00;99001.47;4184411;28;20085;-76
2023/01/31 05:38:47;;;;;;;4.38;1.75;;;;;;;0.82;100.00;99007.44;4187579;28;20055;-75
2023/01/31 05:40:49;;;;;;;5.63;2.53;;;;;;;0.86;100.00;99011.19;4187730;28;20473;-75
2023/01/31 05:42:54;;;;;;;8.30;2.60;;;;;;;0.86;100.00;99008.47;4179409;28;20602;-75
2023/01/31 05:44:54;;;;;;;6.60;2.83;;;;;;;0.94;100.00;98998.78;4187257;28;20052;-75
2023/01/31 05:46:54;;;;;;;8.90;2.13;;;;;;;1.00;100.00;99013.94;4187544;28;21073;-76
2023/01/31 05:48:55;;;;;;;7.00;2.38;;;;;;;0.96;100.00;99010.19;4185553;28;20044;-75
2023/01/31 05:50:55;;;;;;;5.78;2.22;;;;;;;1.04;100.00;99014.94;4191209;28;20044;-75
2023/01/31 05:52:59;;;;;;;7.18;2.08;;;;;;;1.01;100.00;99016.34;4186529;28;20421;-75
2023/01/31 05:54:59;;;;;;;7.07;2.33;;;;;;;1.03;100.00;99014.13;4105155;28;20052;-75
2023/01/31 05:57:00;;;;;;;4.38;2.20;;;;;;;1.03;100.00;99000.50;4200888;28;20549;-75
2023/01/31 05:59:02;;;;;;;8.70;1.83;;;;;;;1.04;100.00;99006.75;4185341;28;20381;-75
2023/01/31 06:01:02;;;;;;;12.32;2.15;;;;;;;1.01;100.00;99013.63;4188648;28;20388;-76
2023/01/31 06:03:03;;;;;;;6.70;2.05;;;;;;;0.98;100.00;99016.94;4185892;28;20536;-76
2023/01/31 06:05:03;;;;;;;3.85;1.70;;;;;;;0.95;100.00;99019.47;4187880;28;20719;-76
2023/01/31 06:07:04;;;;;;;12.35;4.38;;;;;;;0.90;100.00;99020.34;4188054;28;20511;-75
2023/01/31 06:09:04;;;;;;;8.00;2.47;;;;;;;0.88;100.00;99027.22;4189158;28;20093;-75
2023/01/31 06:11:04;;;;;;;5.82;1.92;;;;;;;0.98;100.00;99027.03;4188878;28;20117;-75
2023/01/31 06:13:06;;;;;;;4.50;2.20;;;;;;;1.00;100.00;99028.38;4194055;28;20591;-76
2023/01/31 06:15:07;;;;;;;5.57;1.75;;;;;;;1.01;100.00;99026.44;4188662;28;20040;-75
2023/01/31 06:17:07;;;;;;;8.90;2.00;;;;;;;1.09;100.00;99037.44;4189965;28;20291;-75
2023/01/31 06:19:08;;;;;;;7.38;2.60;;;;;;;1.08;100.00;99040.47;4189292;28;20037;-75
2023/01/31 06:21:08;;;;;;;6.55;2.08;;;;;;;1.13;100.00;99038.44;4188632;28;20159;-75
2023/01/31 06:23:08;;;;;;;7.20;2.60;;;;;;;1.07;100.00;99042.38;4187128;28;20496;-76
2023/01/31 06:25:09;;;;;;;6.22;2.15;;;;;;;1.05;100.00;99051.97;4189908;28;20474;-76
2023/01/31 06:27:09;;;;;;;8.80;2.13;;;;;;;1.06;100.00;99048.94;4186857;28;20365;-76
2023/01/31 06:29:10;;;;;;;7.03;1.98;;;;;;;1.07;100.00;99047.00;4186329;28;20048;-76
2023/01/31 06:31:11;;;;;;;7.35;2.50;;;;;;;1.08;100.00;99045.94;4189323;28;20169;-75
2023/01/31 06:33:12;;;;;;;5.93;2.10;;;;;;;1.15;100.00;99046.31;4188519;28;20136;-75
2023/01/31 06:35:13;;;;;;;6.72;2.30;;;;;;;1.14;100.00;99039.25;4191746;28;20082;-76
2023/01/31 06:37:13;;;;;;;6.60;2.28;;;;;;;1.17;100.00;99043.31;4188080;28;20044;-75
2023/01/31 06:39:14;;;;;;;10.35;2.53;;;;;;;1.14;100.00;99044.69;4189208;28;20424;-75
2023/01/31 06:41:15;;;;;;;8.73;3.13;;;;;;;1.12;100.00;99042.28;4187832;28;20040;-75
2023/01/31 06:43:15;;;;;;;10.10;3.63;;;;;;;1.10;100.00;99039.06;4189035;28;20047;-76
2023/01/31 06:45:15;;;;;;;6.70;2.63;;;;;;;1.08;100.00;99049.47;4188596;28;20171;-76
2023/01/31 06:47:16;;;;;;;5.80;1.95;;;;;;;1.05;100.00;99039.16;4188542;28;20064;-76
2023/01/31 06:49:16;;;;;;;4.78;2.38;;;;;;;1.01;100.00;99045.53;4188339;28;20498;-76
2023/01/31 06:51:16;;;;;;;11.90;3.00;;;;;;;0.97;100.00;99044.50;4189570;28;20036;-76
2023/01/31 06:53:17;;;;;;;6.15;2.60;;;;;;;0.95;100.00;99041.25;4193283;28;20135;-76
2023/01/31 06:55:17;;;;;;;10.65;4.82;;;;;;;1.02;100.00;99047.13;4188480;28;20043;-75
2023/01/31 06:57:18;;;;;;;9.73;3.60;;;;;;;1.02;100.00;99047.94;4188500;28;20041;-76
2023/01/31 06:59:18;;;;;;;9.45;3.03;;;;;;;1.07;100.00;99050.53;4188433;28;20210;-75
2023/01/31 07:01:21;;;;;;;9.90;3.53;;;;;;;1.04;100.00;99050.34;4187797;28;20159;-75
2023/01/31 07:03:21;;;;;;;5.78;2.45;;;;;;;1.06;100.00;99054.38;4187391;28;20048;-76
2023/01/31 07:05:22;;;;;;;3.30;2.25;;;;;;;1.03;100.00;99049.56;4188187;28;20041;-76
2023/01/31 07:07:22;;;;;;;11.95;3.03;;;;;;;1.13;100.00;99051.25;4188183;28;20032;-75
2023/01/31 07:09:23;;;;;;;6.45;2.72;;;;;;;1.15;100.00;99054.50;4187781;28;20047;-76
2023/01/31 07:11:23;;;;;;;4.05;2.05;;;;;;;1.17;100.00;99057.75;4187476;28;20127;-76
2023/01/31 07:13:23;;;;;;;5.20;2.42;;;;;;;1.19;100.00;99062.88;4187804;28;20457;-76
2023/01/31 07:15:24;;;;;;;6.32;2.25;;;;;;;1.16;100.00;99060.75;4188200;28;20326;-75
2023/01/31 07:17:24;;;;;;;7.18;2.80;;;;;;;1.18;100.00;99064.00;4188176;28;20131;-76
2023/01/31 07:19:24;;;;;;;7.20;2.63;;;;;;;1.13;100.00;99056.72;4193701;28;20055;-76
2023/01/31 07:21:25;;;;;;;4.63;2.38;;;;;;;1.10;100.00;99054.59;4187499;28;20100;-76
2023/01/31 07:23:25;;;;;;;6.63;2.20;;;;;;;1.11;100.00;99051.56;4187213;28;20063;-76
2023/01/31 07:25:26;;;;;;;5.47;2.67;;;;;;;1.12;100.00;99053.19;4187581;28;20496;-76
2023/01/31 07:27:26;;;;;;;7.95;2.53;;;;;;;1.06;100.00;99054.38;4193640;28;20045;-76
2023/01/31 07:29:27;;;;;;;7.32;2.90;;;;;;;1.08;100.00;99052.19;4188170;28;20704;-75
2023/01/31 07:31:27;;;;;;;7.90;2.95;;;;;;;1.16;100.00;99055.28;4188351;28;20040;-76
2023/01/31 07:33:28;;;;;;;7.75;2.47;;;;;;;1.19;100.00;99049.25;4187539;28;20048;-75
2023/01/31 07:35:29;;;;;;;4.60;2.05;;;;;;;1.20;100.00;99048.16;4187616;28;20036;-76
2023/01/31 07:37:30;;;;;;;4.60;2.25;;;;;;;1.20;100.00;99048.16;4191842;28;20040;-76
2023/01/31 07:39:30;;;;;;;9.38;2.45;;;;;;;1.20;100.00;99045.41;4187270;28;20045;-76
2023/01/31 07:41:30;;;;;;;5.90;2.10;;;;;;;1.15;100.00;99040.88;4187799;28;20067;-76
2023/01/31 07:43:31;;;;;;;8.65;2.70;;;;;;;1.15;100.00;99034.59;4186905;28;20068;-76
2023/01/31 07:45:31;;;;;;;5.90;2.28;;;;;;;1.16;100.00;99047.13;4187652;28;20492;-76
2023/01/31 07:47:32;;;;;;;6.85;2.60;;;;;;;1.18;100.00;99053.09;4187825;28;20053;-75
2023/01/31 07:49:32;;;;;;;4.15;1.90;;;;;;;1.15;100.00;99045.50;4187711;28;20516;-76
2023/01/31 07:51:33;;;;;;;5.57;2.50;;;;;;;1.13;100.00;99051.25;4187256;28;20033;-76
2023/01/31 07:53:40;;;;;;;7.93;2.30;;;;;;;1.20;100.00;99059.06;4186742;28;20052;-75
2023/01/31 07:55:40;;;;;;;7.32;2.90;;;;;;;1.21;100.00;99056.03;4187555;28;20049;-76
2023/01/31 07:57:41;;;;;;;6.18;2.20;;;;;;;1.18;100.00;99051.19;4187452;28;20469;-75
2023/01/31 07:59:41;;;;;;;5.53;1.98;;;;;;;1.17;100.00;99049.56;4187015;28;20075;-76
2023/01/31 08:04:00;;;;;;;8.23;2.97;;;;;;;1.16;100.00;99044.41;4186692;28;20573;-75
2023/01/31 08:06:10;;;;;;;4.15;2.25;;;;;;;1.16;100.00;99030.78;4187151;28;20041;-75
2023/01/31 08:08:10;;;;;;;11.98;4.00;;;;;;;1.18;100.00;99034.03;4187697;28;20082;-75
2023/01/31 08:10:11;;;;;;;4.28;2.42;;;;;;;1.21;100.00;99038.84;4187114;28;20051;-76
2023/01/31 08:12:11;;;;;;;6.45;2.35;;;;;;;1.24;100.00;99039.06;4190268;28;20036;-76
2023/01/31 08:14:11;;;;;;;10.57;2.50;;;;;;;1.26;100.00;99038.78;4190010;28;20037;-76
2023/01/31 08:16:12;;;;;;;8.55;3.28;;;;;;;1.30;100.00;99035.13;4187906;28;20028;-76
2023/01/31 08:18:12;;;;;;;5.60;2.40;;;;;;;1.41;100.00;99033.00;4187483;28;20698;-75
2023/01/31 08:20:13;;;;;;;3.47;2.20;;;;;;;1.43;100.00;99035.44;4187333;28;20340;-75
2023/01/31 08:22:13;;;;;;;7.32;2.88;;;;;;;1.46;100.00;99037.53;4186648;28;20060;-75
2023/01/31 08:24:13;;;;;;;7.25;2.63;;;;;;;1.56;100.00;99024.47;4185574;28;20037;-75
2023/01/31 08:26:17;;;;;;;12.48;3.60;;;;;;;1.61;100.00;99018.94;4188219;28;20518;-75
2023/01/31 08:28:17;;;;;;;6.00;2.90;;;;;;;1.64;100.00;99025.69;4186226;28;20032;-76
2023/01/31 08:30:17;;;;;;;8.88;2.85;;;;;;;1.67;100.00;99025.91;4192147;28;20027;-76
2023/01/31 08:32:18;;;;;;;11.55;3.50;;;;;;;1.70;100.00;99016.28;4187206;28;20432;-75
2023/01/31 08:34:18;;;;;;;12.50;3.05;;;;;;;1.67;100.00;99022.38;4186338;28;20378;-76
2023/01/31 08:36:28;;;;;;;6.70;3.33;;;;;;;1.66;100.00;99018.03;4186158;28;20546;-76
2023/01/31 08:38:28;;;;;;;9.07;3.30;;;;;;;1.72;100.00;99013.25;4186839;28;20055;-76
2023/01/31 08:40:29;;;;;;;9.25;3.00;;;;;;;1.78;100.00;99007.38;4187199;28;20075;-75
2023/01/31 08:42:29;;;;;;;8.25;3.33;;;;;;;1.74;100.00;99014.56;4186384;28;20068;-75
2023/01/31 08:44:30;;;;;;;5.20;3.30;;;;;;;1.71;100.00;99015.16;4187808;28;20346;-76
2023/01/31 08:46:34;;;;;;;9.43;3.83;;;;;;;1.73;100.00;99007.47;4186337;28;20066;-75
2023/01/31 08:48:36;;;;;;;8.65;3.17;;;;;;;1.75;100.00;99018.91;4186830;28;20049;-76
2023/01/31 08:50:36;;;;;;;7.85;2.92;;;;;;;1.77;100.00;99010.41;4187149;28;20041;-75
2023/01/31 08:52:37;;;;;;;10.05;3.65;;;;;;;1.82;100.00;99002.09;4185778;28;20416;-76
2023/01/31 08:54:37;;;;;;;10.35;3.40;;;;;;;1.92;100.00;99001.88;4187053;28;20135;-76
2023/01/31 08:56:37;;;;;;;9.15;3.88;;;;;;;1.90;100.00;98994.03;4196111;28;20126;-75
2023/01/31 08:58:40;;;;;;;7.63;3.10;;;;;;;1.93;100.00;98992.59;4192841;28;20528;-75
2023/01/31 09:00:40;;;;;;;13.05;3.72;;;;;;;1.92;100.00;98988.25;4186223;28;20056;-75
2023/01/31 09:02:41;;;;;;;8.27;3.85;;;;;;;1.91;100.00;98997.56;4185548;28;20067;-75
2023/01/31 09:04:41;;;;;;;7.85;3.20;;;;;;;1.90;100.00;98991.28;4186625;28;20453;-75
2023/01/31 09:06:42;;;;;;;7.35;3.13;;;;;;;1.95;100.00;98987.63;4186592;28;20131;-76
2023/01/31 09:08:42;;;;;;;11.82;3.03;;;;;;;1.97;100.00;98980.72;4186058;28;20119;-75
2023/01/31 09:10:49;;;;;;;7.32;2.92;;;;;;;2.00;100.00;98979.31;4186822;28;20045;-76
2023/01/31 09:12:50;;;;;;;9.52;3.25;;;;;;;2.11;100.00;98975.22;4186064;28;20578;-76
2023/01/31 09:14:51;;;;;;;6.35;3.53;;;;;;;2.18;100.00;98967.41;4186437;28;20044;-75
2023/01/31 09:16:51;;;;;;;11.32;4.25;;;;;;;2.20;100.00;98969.81;4186153;28;20119;-76
2023/01/31 09:18:52;;;;;;;10.38;3.85;;;;;;;2.20;100.00;98976.09;4185922;28;20082;-76
2023/01/31 09:20:53;;;;;;;10.18;3.50;;;;;;;2.22;100.00;98970.31;4190989;28;20051;-76
2023/01/31 09:22:53;;;;;;;7.10;3.15;;;;;;;2.20;100.00;98984.28;4185574;28;20067;-75
2023/01/31 09:24:54;;;;;;;8.30;3.20;;;;;;;2.19;100.00;98982.66;4185884;28;20131;-76
2023/01/31 09:26:55;;;;;;;10.90;3.60;;;;;;;2.25;100.00;98967.78;4186508;28;20072;-75
2023/01/31 09:28:57;;;;;;;10.25;3.47;;;;;;;2.24;100.00;98966.16;4184589;28;20072;-76
2023/01/31 09:31:06;;;;;;;10.30;3.28;;;;;;;2.23;100.00;98958.25;4186357;28;20040;-76
2023/01/31 09:33:06;;;;;;;12.13;4.25;;;;;;;2.20;100.00;98958.91;4185494;28;20040;-76
2023/01/31 09:35:07;;;;;;;9.07;3.63;;;;;;;2.20;100.00;98978.00;4185395;28;20819;-76
2023/01/31 09:37:07;;;;;;;11.27;3.40;;;;;;;2.20;100.00;98973.34;4186465;28;20143;-75
2023/01/31 09:39:10;;;;;;;6.55;3.50;;;;;;;2.17;100.00;98965.00;4187085;28;20389;-76
2023/01/31 09:41:31;;;;;;;7.43;3.38;;;;;;;2.18;100.00;98961.94;4185821;28;20045;-75
2023/01/31 09:43:38;;;;;;;10.52;3.17;;;;;;;2.16;100.00;98956.00;4185550;28;20051;-76
2023/01/31 09:45:42;;;;;;;8.52;3.80;;;;;;;2.17;100.00;98954.06;4186271;28;20037;-75
2023/01/31 09:47:47;;;;;;;10.13;3.10;;;;;;;2.20;100.00;98937.06;4191709;28;20153;-75